createdAt,value
2018-11-29T00:04:01.701Z,21.27
2018-11-29T00:09:07.977Z,28.23
2018-11-29T00:14:11.944Z,22.77
2018-11-29T00:19:15.515Z,30.00
2018-11-29T00:24:19.056Z,24.80
2018-11-29T00:29:22.736Z,21.30
2018-11-29T00:34:26.307Z,21.67
2018-11-29T00:39:29.872Z,19.20
2018-11-29T00:44:33.429Z,20.67
2018-11-29T00:49:38.011Z,20.20
2018-11-29T00:54:41.566Z,18.23
2018-11-29T00:59:45.148Z,21.00
2018-11-29T01:04:49.123Z,18.80
2018-11-29T01:09:52.701Z,21.27
2018-11-29T01:14:56.248Z,19.07
2018-11-29T01:19:59.830Z,21.33
2018-11-29T01:25:03.753Z,19.73
2018-11-29T01:30:13.969Z,18.93
2018-11-29T01:35:18.917Z,20.50
2018-11-29T01:40:23.658Z,17.13
2018-11-29T01:45:27.575Z,20.90
2018-11-29T01:50:31.175Z,18.53
2018-11-29T01:55:35.075Z,18.10
2018-11-29T02:00:38.640Z,19.57
2018-11-29T02:05:42.243Z,17.27
2018-11-29T02:10:51.324Z,19.73
2018-11-29T02:15:56.796Z,21.33
2018-11-29T02:21:00.374Z,20.30
2018-11-29T02:26:05.150Z,18.47
2018-11-29T02:31:11.458Z,19.47
2018-11-29T02:36:15.153Z,20.10
2018-11-29T02:41:19.478Z,19.50
2018-11-29T02:46:23.048Z,19.20
2018-11-29T02:51:26.642Z,21.77
2018-11-29T02:56:30.197Z,21.50
2018-11-29T03:01:33.771Z,22.70
2018-11-29T03:06:37.520Z,20.20
2018-11-29T03:11:44.286Z,19.27
2018-11-29T03:16:48.000Z,18.57
2018-11-29T03:21:51.970Z,19.80
2018-11-29T03:26:55.575Z,22.30
2018-11-29T03:32:00.502Z,19.10
2018-11-29T03:37:04.118Z,18.03
2018-11-29T03:42:07.719Z,19.80
2018-11-29T03:47:13.281Z,20.10
2018-11-29T03:52:17.449Z,22.23
2018-11-29T03:57:21.094Z,20.27
2018-11-29T04:02:25.576Z,20.27
2018-11-29T04:07:29.133Z,20.80
2018-11-29T04:12:34.780Z,22.97
2018-11-29T04:17:41.123Z,19.47
2018-11-29T04:22:44.157Z,22.17
2018-11-29T04:27:47.747Z,20.03
2018-11-29T04:32:53.405Z,24.03
2018-11-29T04:37:56.982Z,19.97
2018-11-29T04:43:00.556Z,21.50
2018-11-29T04:48:09.837Z,19.30
2018-11-29T04:53:09.247Z,17.83
2018-11-29T04:58:12.881Z,18.30
2018-11-29T05:03:16.645Z,19.67
2018-11-29T05:08:20.297Z,19.30
2018-11-29T05:13:24.323Z,19.83
2018-11-29T05:18:27.938Z,18.07
2018-11-29T05:23:31.854Z,24.73
2018-11-29T05:28:37.621Z,21.37
2018-11-29T05:38:52.301Z,26.90
2018-11-29T05:43:55.864Z,27.80
2018-11-29T05:48:59.594Z,23.10
2018-11-29T05:54:04.193Z,22.13
2018-11-29T05:59:07.761Z,21.27
2018-11-29T06:04:14.609Z,20.90
2018-11-29T06:09:18.930Z,19.00
2018-11-29T06:14:24.089Z,23.77
2018-11-29T06:19:28.423Z,20.20
2018-11-29T06:24:32.015Z,21.43
2018-11-29T06:29:35.615Z,19.83
2018-11-29T06:34:39.260Z,20.83
2018-11-29T06:39:42.988Z,20.10
2018-11-29T06:44:46.729Z,21.73
2018-11-29T06:49:50.707Z,19.50
2018-11-29T06:54:55.112Z,22.37
2018-11-29T06:59:59.608Z,23.20
2018-11-29T07:05:04.043Z,21.43
2018-11-29T07:10:09.980Z,21.87
2018-11-29T07:15:14.229Z,21.27
2018-11-29T07:20:17.966Z,21.43
2018-11-29T07:25:21.601Z,24.83
2018-11-29T07:30:25.819Z,20.87
2018-11-29T07:35:29.469Z,30.53
2018-11-29T07:40:33.073Z,22.20
2018-11-29T07:45:36.688Z,22.07
2018-11-29T07:50:40.285Z,24.47
2018-11-29T07:55:43.987Z,21.00
2018-11-29T08:00:47.701Z,20.80
2018-11-29T08:05:51.266Z,23.10
2018-11-29T08:10:55.194Z,20.77
2018-11-29T08:15:58.906Z,25.93
2018-11-29T08:21:04.432Z,24.30
2018-11-29T08:26:08.749Z,23.13
2018-11-29T08:31:13.457Z,22.77
2018-11-29T08:36:17.410Z,23.23
2018-11-29T08:41:20.994Z,23.03
2018-11-29T08:46:25.468Z,23.93
2018-11-29T08:51:29.802Z,24.40
2018-11-29T08:56:33.714Z,25.93
2018-11-29T09:01:37.551Z,24.30
2018-11-29T09:06:41.152Z,29.03
2018-11-29T09:11:45.523Z,31.50
2018-11-29T09:16:49.223Z,30.50
2018-11-29T09:21:52.820Z,30.00
2018-11-29T09:26:56.637Z,27.27
2018-11-29T09:32:00.193Z,26.47
2018-11-29T09:37:03.881Z,25.50
2018-11-29T09:42:07.541Z,30.20
2018-11-29T09:47:11.275Z,22.97
2018-11-29T09:52:14.886Z,25.73
2018-11-29T09:57:18.774Z,26.23
2018-11-29T10:02:23.450Z,23.83
2018-11-29T10:07:27.818Z,24.90
2018-11-29T10:12:32.197Z,22.90
2018-11-29T10:17:35.752Z,21.37
2018-11-29T10:22:41.741Z,24.27
2018-11-29T10:27:48.388Z,22.90
2018-11-29T10:32:54.396Z,23.07
2018-11-29T10:37:58.052Z,23.40
2018-11-29T10:43:01.990Z,25.70
2018-11-29T10:48:08.045Z,22.03
2018-11-29T10:53:11.623Z,27.37
2018-11-29T10:58:15.311Z,23.00
2018-11-29T11:03:19.806Z,23.73
2018-11-29T11:08:23.417Z,18.70
2018-11-29T11:13:27.039Z,22.17
2018-11-29T11:18:30.744Z,21.47
2018-11-29T11:23:34.323Z,18.53
2018-11-29T11:28:38.174Z,26.37
2018-11-29T11:33:41.805Z,22.37
2018-11-29T11:38:46.344Z,25.07
2018-11-29T11:43:50.723Z,23.07
2018-11-29T11:48:55.804Z,22.83
2018-11-29T11:53:59.434Z,23.37
2018-11-29T11:59:03.026Z,23.10
2018-11-29T12:04:06.598Z,24.23
2018-11-29T12:09:10.436Z,23.50
2018-11-29T12:14:14.339Z,22.00
2018-11-29T12:19:18.501Z,21.50
2018-11-29T12:24:22.184Z,22.67
2018-11-29T12:29:26.095Z,18.90
2018-11-29T12:34:29.682Z,21.10
2018-11-29T12:39:33.265Z,27.60
2018-11-29T12:44:36.864Z,21.50
2018-11-29T12:49:40.461Z,21.60
2018-11-29T12:54:44.568Z,20.90
2018-11-29T12:59:48.167Z,22.47
2018-11-29T13:04:51.755Z,22.57
2018-11-29T13:09:55.280Z,25.23
2018-11-29T13:14:59.784Z,26.87
2018-11-29T13:20:03.559Z,31.60
2018-11-29T13:25:15.248Z,23.80
2018-11-29T13:30:20.561Z,23.43
2018-11-29T13:35:33.245Z,24.50
2018-11-29T13:40:36.833Z,22.43
2018-11-29T13:45:40.860Z,25.53
2018-11-29T13:50:45.458Z,22.93
2018-11-29T13:55:49.049Z,28.50
2018-11-29T14:00:52.606Z,24.13
2018-11-29T14:05:56.217Z,23.20
2018-11-29T14:10:59.837Z,24.80
2018-11-29T14:16:03.971Z,23.90
2018-11-29T14:21:07.909Z,24.40
2018-11-29T14:26:11.521Z,26.47
2018-11-29T14:31:15.728Z,24.70
2018-11-29T14:36:20.152Z,29.63
2018-11-29T14:41:23.701Z,24.87
2018-11-29T14:46:27.282Z,25.23
2018-11-29T14:51:31.247Z,24.43
2018-11-29T14:56:34.895Z,23.17
2018-11-29T15:01:38.527Z,26.10
2018-11-29T15:06:42.169Z,31.10
2018-11-29T15:11:45.734Z,24.90
2018-11-29T15:16:49.340Z,25.50
2018-11-29T15:21:53.150Z,27.33
2018-11-29T15:26:56.935Z,28.70
2018-11-29T15:32:01.252Z,25.23
2018-11-29T15:37:04.862Z,25.40
2018-11-29T15:42:08.538Z,32.37
2018-11-29T15:47:12.141Z,29.60
2018-11-29T15:52:15.803Z,25.90
2018-11-29T15:57:19.394Z,28.70
2018-11-29T16:02:23.017Z,28.80
2018-11-29T16:07:26.651Z,30.37
2018-11-29T16:12:30.286Z,29.10
2018-11-29T16:17:33.885Z,27.77
2018-11-29T16:22:37.549Z,26.00
2018-11-29T16:27:41.184Z,27.00
2018-11-29T16:32:44.771Z,26.10
2018-11-29T16:37:48.404Z,27.30
2018-11-29T16:42:52.166Z,26.93
2018-11-29T16:47:56.056Z,30.37
2018-11-29T16:52:59.680Z,28.73
2018-11-29T16:58:05.401Z,26.27
2018-11-29T17:03:10.059Z,29.63
2018-11-29T17:08:13.731Z,26.03
2018-11-29T17:13:18.609Z,27.10
2018-11-29T17:18:22.905Z,30.20
2018-11-29T17:23:26.651Z,28.33
2018-11-29T17:28:30.260Z,28.13
2018-11-29T17:33:33.861Z,25.37
2018-11-29T17:38:37.515Z,28.00
2018-11-29T17:43:41.136Z,27.20
2018-11-29T17:48:45.055Z,27.67
2018-11-29T17:53:53.610Z,29.37
2018-11-29T17:58:57.189Z,27.97
2018-11-29T18:04:00.782Z,27.10
2018-11-29T18:09:08.651Z,26.73
2018-11-29T18:14:12.219Z,27.97
2018-11-29T18:19:15.873Z,35.80
2018-11-29T18:24:19.505Z,31.50
2018-11-29T18:29:23.152Z,27.97
2018-11-29T18:34:27.022Z,31.73
2018-11-29T18:39:30.912Z,33.90
2018-11-29T18:44:34.918Z,44.30
2018-11-29T18:49:38.769Z,33.70
2018-11-29T18:54:42.703Z,30.93
2018-11-29T18:59:46.609Z,29.90
2018-11-29T19:04:50.243Z,29.20
2018-11-29T19:09:54.351Z,29.30
2018-11-29T19:14:58.200Z,34.30
2018-11-29T19:20:02.225Z,32.03
2018-11-29T19:25:08.125Z,30.23
2018-11-29T19:30:15.417Z,32.07
2018-11-29T19:35:19.118Z,30.03
2018-11-29T19:40:23.337Z,31.40
2018-11-29T19:45:27.782Z,30.13
2018-11-29T19:50:32.401Z,26.80
2018-11-29T19:55:36.076Z,25.63
2018-11-29T20:00:39.900Z,26.87
2018-11-29T20:05:43.479Z,28.53
2018-11-29T20:10:47.398Z,29.90
2018-11-29T20:15:52.987Z,36.17
2018-11-29T20:20:56.628Z,32.30
2018-11-29T20:26:00.201Z,40.20
2018-11-29T20:31:03.956Z,31.87
2018-11-29T20:36:08.365Z,29.93
2018-11-29T20:41:11.960Z,29.17
2018-11-29T20:46:15.516Z,27.50
2018-11-29T20:51:19.074Z,28.30
2018-11-29T20:56:22.625Z,30.67
2018-11-29T21:01:28.381Z,29.47
2018-11-29T21:06:31.956Z,32.93
2018-11-29T21:11:35.541Z,30.07
2018-11-29T21:16:39.157Z,33.50
2018-11-29T21:21:46.624Z,26.13
2018-11-29T21:26:50.675Z,24.93
2018-11-29T21:31:56.219Z,26.83
2018-11-29T21:37:00.684Z,30.30
2018-11-29T21:42:04.718Z,25.17
2018-11-29T21:47:09.396Z,32.47
2018-11-29T21:52:12.999Z,28.33
2018-11-29T21:57:16.646Z,26.53
2018-11-29T22:02:20.253Z,26.07
2018-11-29T22:07:23.805Z,28.73
2018-11-29T22:12:27.413Z,29.70
2018-11-29T22:17:31.278Z,30.10
2018-11-29T22:22:34.900Z,25.50
2018-11-29T22:27:38.705Z,27.17
2018-11-29T22:32:42.331Z,26.93
2018-11-29T22:37:46.207Z,24.97
2018-11-29T22:42:49.825Z,21.30
2018-11-29T22:47:53.433Z,22.57
2018-11-29T22:52:57.038Z,25.60
2018-11-29T22:58:01.020Z,26.03
2018-11-29T23:03:04.818Z,23.20
2018-11-29T23:08:08.693Z,24.70
2018-11-29T23:13:12.477Z,23.00
2018-11-29T23:18:16.577Z,28.57
2018-11-29T23:23:20.195Z,27.87
2018-11-29T23:28:24.318Z,23.13
2018-11-29T23:33:27.927Z,21.93
2018-11-29T23:38:31.507Z,22.10
2018-11-29T23:43:35.714Z,22.07
2018-11-29T23:48:40.020Z,22.37
2018-11-29T23:53:43.601Z,22.13
2018-11-29T23:58:47.595Z,22.27
